Time;durP1;ratioP1;P1;durP2;ratioP2;P2;SDS_P1;SDS_P2;PMS_P1;PMS_P2;Temp;Humidity;BMP_temperature;BMP_pressure;BME280_temperature;BME280_humidity;BME280_pressure;Samples;Min_cycle;Max_cycle;Signal;HPM_P1;HPM_P2
2023/03/29 00:00:42;;;;;;;9.83;5.67;;;5.80;99.90;;;;;;4980119;28;20507;-66
2023/03/29 00:03:12;;;;;;;5.50;4.90;;;5.80;99.90;;;;;;4965159;28;20595;-68
2023/03/29 00:05:41;;;;;;;6.40;4.90;;;5.80;99.90;;;;;;4962366;28;20499;-67
2023/03/29 00:08:13;;;;;;;6.90;4.73;;;5.70;99.90;;;;;;4987425;28;20477;-68
2023/03/29 00:10:41;;;;;;;6.70;5.17;;;5.80;99.90;;;;;;4972862;28;20496;-66
2023/03/29 00:13:09;;;;;;;6.27;4.60;;;5.80;99.90;;;;;;4975676;28;20575;-68
2023/03/29 00:15:37;;;;;;;6.10;4.70;;;5.80;99.90;;;;;;4982481;28;20465;-67
2023/03/29 00:18:05;;;;;;;5.60;4.70;;;5.80;99.90;;;;;;4986856;28;21075;-66
2023/03/29 00:20:35;;;;;;;5.27;4.77;;;5.70;99.90;;;;;;4987983;28;20559;-67
2023/03/29 00:23:03;;;;;;;7.73;5.07;;;5.70;99.90;;;;;;4987875;28;20539;-68
2023/03/29 00:25:31;;;;;;;5.83;4.77;;;5.70;99.90;;;;;;4985355;28;20469;-68
2023/03/29 00:27:59;;;;;;;6.27;4.97;;;5.70;99.90;;;;;;4990018;28;20568;-68
2023/03/29 00:30:27;;;;;;;6.53;5.00;;;5.70;99.90;;;;;;4982884;28;20864;-68
2023/03/29 00:32:55;;;;;;;5.53;5.03;;;5.60;99.90;;;;;;4987975;28;20867;-68
2023/03/29 00:35:23;;;;;;;6.03;5.00;;;5.70;99.90;;;;;;4981402;28;20476;-68
2023/03/29 00:37:52;;;;;;;4.90;4.17;;;5.60;99.90;;;;;;4988750;28;20619;-67
2023/03/29 00:40:20;;;;;;;6.03;4.97;;;5.60;99.90;;;;;;4975992;28;20509;-68
2023/03/29 00:42:48;;;;;;;6.37;5.77;;;5.60;99.90;;;;;;4985256;28;20496;-68
2023/03/29 00:45:22;;;;;;;6.60;5.40;;;5.60;99.90;;;;;;4982228;28;20477;-68
2023/03/29 00:47:52;;;;;;;7.17;4.80;;;5.60;99.90;;;;;;4979156;28;21101;-67
2023/03/29 00:50:25;;;;;;;5.77;5.10;;;5.60;99.90;;;;;;4977825;28;20493;-67
2023/03/29 00:52:59;;;;;;;5.60;4.53;;;5.60;99.90;;;;;;4981661;28;20485;-68
2023/03/29 00:55:31;;;;;;;5.97;5.10;;;5.60;99.90;;;;;;4961646;28;21702;-67
2023/03/29 00:58:01;;;;;;;5.40;4.67;;;5.60;99.90;;;;;;4972686;28;20477;-68
2023/03/29 01:00:33;;;;;;;6.60;5.90;;;5.60;99.90;;;;;;4976900;28;20507;-67
2023/03/29 01:03:05;;;;;;;6.83;5.70;;;5.60;99.90;;;;;;4974216;28;20503;-68
2023/03/29 01:05:39;;;;;;;5.67;5.03;;;5.60;99.90;;;;;;4976281;28;20476;-68
2023/03/29 01:08:17;;;;;;;6.57;5.27;;;5.60;99.90;;;;;;4971328;28;20473;-67
2023/03/29 01:10:50;;;;;;;7.87;4.90;;;5.60;99.90;;;;;;4977186;28;20492;-68
2023/03/29 01:13:21;;;;;;;4.73;4.33;;;5.60;99.90;;;;;;4979049;28;21031;-69
2023/03/29 01:15:50;;;;;;;5.50;4.47;;;5.60;99.90;;;;;;4975206;28;20472;-67
2023/03/29 01:18:18;;;;;;;5.07;4.57;;;5.60;99.90;;;;;;4977755;28;20472;-69
2023/03/29 01:21:03;;;;;;;4.63;4.30;;;5.60;99.90;;;;;;4984206;28;21018;-68
2023/03/29 01:23:45;;;;;;;5.53;5.00;;;5.60;99.90;;;;;;4987259;28;20485;-68
2023/03/29 01:26:20;;;;;;;4.90;4.40;;;5.60;99.90;;;;;;4983079;28;20473;-67
2023/03/29 01:28:55;;;;;;;6.60;5.10;;;5.60;99.90;;;;;;4984220;28;20465;-68
2023/03/29 01:31:26;;;;;;;5.60;4.40;;;5.60;99.90;;;;;;4987256;28;20492;-68
2023/03/29 01:34:01;;;;;;;7.07;4.50;;;5.60;99.90;;;;;;4987050;28;20492;-66
2023/03/29 01:36:35;;;;;;;5.07;4.67;;;5.60;99.90;;;;;;4973298;28;20464;-67
2023/03/29 01:39:05;;;;;;;5.70;4.67;;;5.60;99.90;;;;;;4980114;28;21013;-68
2023/03/29 01:41:41;;;;;;;7.90;4.70;;;5.60;99.90;;;;;;4989897;28;20918;-68
2023/03/29 01:44:17;;;;;;;5.53;4.60;;;5.60;99.90;;;;;;4980190;28;20489;-67
2023/03/29 01:46:47;;;;;;;5.60;5.07;;;5.60;99.90;;;;;;4986918;28;20483;-68
2023/03/29 01:49:22;;;;;;;7.03;5.13;;;5.60;99.90;;;;;;4986416;28;20472;-68
2023/03/29 01:51:58;;;;;;;5.60;5.10;;;5.60;99.90;;;;;;4979587;28;21581;-68
2023/03/29 01:54:30;;;;;;;6.50;4.70;;;5.50;99.90;;;;;;4981083;28;20561;-67
2023/03/29 01:57:02;;;;;;;5.53;4.97;;;5.50;99.90;;;;;;4980838;28;20477;-68
2023/03/29 01:59:35;;;;;;;6.10;4.10;;;5.50;99.90;;;;;;4981822;28;20493;-68
2023/03/29 02:02:10;;;;;;;7.17;4.53;;;5.50;99.90;;;;;;4985159;28;20477;-68
2023/03/29 02:04:44;;;;;;;4.87;4.33;;;5.50;99.90;;;;;;4981565;28;20531;-68
2023/03/29 02:07:13;;;;;;;5.83;5.20;;;5.50;99.90;;;;;;4982776;28;20507;-68
2023/03/29 02:09:42;;;;;;;6.20;5.70;;;5.50;99.90;;;;;;4978042;28;20473;-68
2023/03/29 02:12:11;;;;;;;5.90;5.40;;;5.40;99.90;;;;;;4980355;28;20489;-67
2023/03/29 02:14:41;;;;;;;8.40;5.67;;;5.40;99.90;;;;;;4985415;28;20500;-69
2023/03/29 02:17:17;;;;;;;5.07;4.67;;;5.40;99.90;;;;;;4980256;28;20834;-67
2023/03/29 02:19:49;;;;;;;6.80;4.90;;;5.40;99.90;;;;;;4989772;28;20650;-68
2023/03/29 02:22:22;;;;;;;7.27;4.60;;;5.40;99.90;;;;;;4989571;28;20519;-68
2023/03/29 02:24:55;;;;;;;4.93;4.40;;;5.40;99.90;;;;;;4984874;28;20977;-68
2023/03/29 02:27:23;;;;;;;6.57;4.63;;;5.40;99.90;;;;;;4985938;28;20772;-67
2023/03/29 02:29:52;;;;;;;6.00;4.30;;;5.40;99.90;;;;;;4983577;28;20598;-68
2023/03/29 02:32:25;;;;;;;6.87;4.23;;;5.30;99.90;;;;;;4989818;28;20482;-67
2023/03/29 02:34:57;;;;;;;6.57;4.80;;;5.30;99.90;;;;;;4989697;28;20477;-68
2023/03/29 02:37:29;;;;;;;5.20;4.60;;;5.30;99.90;;;;;;4981962;28;20472;-68
2023/03/29 02:39:58;;;;;;;5.70;5.20;;;5.30;99.90;;;;;;4990365;28;20501;-69
2023/03/29 02:42:28;;;;;;;4.40;4.00;;;5.30;99.90;;;;;;4979433;28;20495;-67
2023/03/29 02:45:00;;;;;;;5.30;4.30;;;5.30;99.90;;;;;;4976956;28;20473;-69
2023/03/29 02:47:32;;;;;;;7.53;4.50;;;5.30;99.90;;;;;;4980335;28;20473;-68
2023/03/29 02:50:00;;;;;;;6.03;4.70;;;5.30;99.90;;;;;;4977885;28;20500;-68
2023/03/29 02:52:33;;;;;;;6.50;4.50;;;5.20;99.90;;;;;;4986673;28;21002;-68
2023/03/29 02:55:05;;;;;;;4.90;3.90;;;5.20;99.90;;;;;;4988312;28;20495;-68
2023/03/29 02:57:34;;;;;;;7.13;3.93;;;5.20;99.90;;;;;;4986564;28;20481;-67
2023/03/29 03:00:08;;;;;;;7.73;4.30;;;5.20;99.90;;;;;;4990553;28;20496;-68
2023/03/29 03:02:37;;;;;;;5.63;4.40;;;5.20;99.90;;;;;;4986519;28;20476;-69
2023/03/29 03:05:07;;;;;;;5.53;3.73;;;5.20;99.90;;;;;;4982307;28;20542;-68
2023/03/29 03:07:35;;;;;;;4.67;3.90;;;5.10;99.90;;;;;;4981011;28;20475;-68
2023/03/29 03:10:03;;;;;;;4.17;3.50;;;5.10;99.90;;;;;;4985193;28;20500;-68
2023/03/29 03:12:31;;;;;;;5.03;4.03;;;5.10;99.90;;;;;;4985913;28;20499;-68
2023/03/29 03:14:59;;;;;;;5.53;3.93;;;5.10;99.90;;;;;;4986901;28;20473;-68
2023/03/29 03:17:29;;;;;;;4.13;3.60;;;5.10;99.90;;;;;;4979978;28;20473;-67
2023/03/29 03:19:57;;;;;;;6.03;4.33;;;5.10;99.90;;;;;;4980611;28;20528;-69
2023/03/29 03:22:25;;;;;;;6.40;3.80;;;5.10;99.90;;;;;;4985030;28;20492;-69
2023/03/29 03:24:53;;;;;;;5.40;4.00;;;5.00;99.90;;;;;;4987599;28;20982;-68
2023/03/29 03:27:21;;;;;;;4.10;3.80;;;5.00;99.90;;;;;;4984987;28;20509;-68
2023/03/29 03:29:49;;;;;;;16.60;4.80;;;5.00;99.90;;;;;;4977719;28;20841;-67
2023/03/29 03:32:17;;;;;;;6.37;3.97;;;5.00;99.90;;;;;;4978161;28;20497;-68
2023/03/29 03:34:46;;;;;;;4.63;4.23;;;5.00;99.90;;;;;;4986378;28;20480;-69
2023/03/29 03:37:14;;;;;;;6.13;3.90;;;5.00;99.90;;;;;;4982955;28;20473;-68
2023/03/29 03:39:42;;;;;;;5.70;3.80;;;5.00;99.90;;;;;;4980201;28;20488;-67
2023/03/29 03:42:10;;;;;;;7.27;4.33;;;5.00;99.90;;;;;;4987733;28;20496;-69
2023/03/29 03:44:39;;;;;;;6.40;4.30;;;5.00;99.90;;;;;;4977594;28;21012;-68
2023/03/29 03:47:07;;;;;;;7.53;4.83;;;5.00;99.90;;;;;;4986012;28;20475;-68
2023/03/29 03:49:35;;;;;;;4.30;4.00;;;5.00;99.90;;;;;;4975751;28;20509;-68
2023/03/29 03:52:05;;;;;;;5.03;4.33;;;5.00;99.90;;;;;;4966478;28;20476;-68
2023/03/29 03:54:33;;;;;;;6.07;4.20;;;5.00;99.90;;;;;;4981468;28;22023;-69
2023/03/29 03:57:01;;;;;;;6.13;4.10;;;5.00;99.90;;;;;;4981476;28;20480;-68
2023/03/29 03:59:29;;;;;;;6.20;4.40;;;5.00;99.90;;;;;;4976678;28;20488;-68
2023/03/29 04:01:57;;;;;;;6.00;4.77;;;5.00;99.90;;;;;;4978077;28;20520;-67
2023/03/29 04:04:25;;;;;;;5.83;4.40;;;5.00;99.90;;;;;;4986779;28;21037;-68
2023/03/29 04:07:01;;;;;;;6.27;4.63;;;5.00;99.90;;;;;;4983427;28;20481;-70
2023/03/29 04:09:31;;;;;;;5.33;4.20;;;5.00;99.90;;;;;;4974395;28;20952;-69
2023/03/29 04:12:01;;;;;;;5.17;4.30;;;4.90;99.90;;;;;;4982442;28;20465;-68
2023/03/29 04:14:30;;;;;;;5.07;4.30;;;4.90;99.90;;;;;;4970593;28;20481;-68
2023/03/29 04:16:59;;;;;;;7.47;4.10;;;4.90;99.90;;;;;;4981737;28;20910;-68
2023/03/29 04:19:26;;;;;;;4.80;3.80;;;4.90;99.90;;;;;;4978917;28;20473;-67
2023/03/29 04:21:54;;;;;;;5.73;4.03;;;5.00;99.90;;;;;;4974675;28;21168;-69
2023/03/29 04:24:24;;;;;;;6.23;4.40;;;5.00;99.90;;;;;;4977948;28;20476;-68
2023/03/29 04:26:53;;;;;;;5.73;4.93;;;5.00;99.90;;;;;;4982069;28;20544;-69
2023/03/29 04:29:21;;;;;;;9.13;5.07;;;5.00;99.90;;;;;;4968825;28;20465;-67
2023/03/29 04:31:49;;;;;;;7.50;5.47;;;5.00;99.90;;;;;;4978668;28;20859;-69
2023/03/29 04:34:17;;;;;;;6.40;5.80;;;5.00;99.90;;;;;;4975682;28;20594;-68
2023/03/29 04:36:45;;;;;;;9.00;5.10;;;5.00;99.90;;;;;;4967893;28;20477;-67
2023/03/29 04:39:13;;;;;;;5.43;4.93;;;5.00;99.90;;;;;;4975753;28;20680;-68
2023/03/29 04:41:41;;;;;;;5.90;5.00;;;5.00;99.90;;;;;;4977579;28;20554;-68
2023/03/29 04:44:11;;;;;;;5.23;4.73;;;5.00;99.90;;;;;;4976594;28;20499;-69
2023/03/29 04:46:39;;;;;;;7.00;4.93;;;5.00;99.90;;;;;;4968048;28;21092;-68
2023/03/29 04:49:07;;;;;;;5.93;5.03;;;5.00;99.90;;;;;;4976155;28;20509;-68
2023/03/29 04:51:35;;;;;;;8.13;4.70;;;5.00;99.90;;;;;;4973843;28;20510;-69
2023/03/29 04:54:03;;;;;;;6.83;5.50;;;5.00;99.90;;;;;;4955364;28;20497;-67
2023/03/29 04:56:31;;;;;;;6.30;5.23;;;5.00;99.90;;;;;;4969998;28;20473;-71
2023/03/29 04:58:59;;;;;;;8.00;4.87;;;5.00;99.90;;;;;;4950337;28;20477;-67
2023/03/29 05:01:28;;;;;;;5.70;5.20;;;5.00;99.90;;;;;;4964620;28;20600;-69
2023/03/29 05:03:56;;;;;;;5.77;5.27;;;5.00;99.90;;;;;;4961564;28;20490;-68
2023/03/29 05:06:25;;;;;;;6.50;5.40;;;5.00;99.90;;;;;;4964368;28;20527;-69
2023/03/29 05:08:53;;;;;;;7.20;5.87;;;5.00;99.90;;;;;;4951518;28;20479;-68
2023/03/29 05:11:23;;;;;;;7.03;6.13;;;5.00;99.90;;;;;;4945447;28;20486;-68
2023/03/29 05:13:51;;;;;;;8.33;7.30;;;5.00;99.90;;;;;;4983976;28;20489;-68
2023/03/29 05:16:19;;;;;;;7.57;6.87;;;5.00;99.90;;;;;;4985681;28;21112;-68
2023/03/29 05:18:50;;;;;;;7.80;6.10;;;5.00;99.90;;;;;;4992534;28;20496;-68
2023/03/29 05:21:19;;;;;;;7.90;6.50;;;5.00;99.90;;;;;;4994313;28;20493;-65
2023/03/29 05:23:47;;;;;;;9.57;7.17;;;5.00;99.90;;;;;;4985974;28;20496;-68
2023/03/29 05:26:15;;;;;;;8.10;6.53;;;5.10;99.90;;;;;;4986400;28;20461;-68
2023/03/29 05:28:43;;;;;;;10.40;7.43;;;5.10;99.90;;;;;;4976218;28;20481;-68
2023/03/29 05:31:12;;;;;;;8.20;7.10;;;5.00;99.90;;;;;;4974599;28;20493;-68
2023/03/29 05:33:43;;;;;;;9.10;7.70;;;5.10;99.90;;;;;;4986113;28;20537;-68
2023/03/29 05:36:15;;;;;;;8.20;7.33;;;5.10;99.90;;;;;;4984203;28;20500;-68
2023/03/29 05:38:45;;;;;;;8.60;7.60;;;5.10;99.90;;;;;;4985109;28;20473;-67
2023/03/29 05:41:14;;;;;;;9.17;8.27;;;5.10;99.90;;;;;;4980597;28;20501;-69
2023/03/29 05:43:42;;;;;;;10.40;7.90;;;5.10;99.90;;;;;;4984566;28;21037;-68
2023/03/29 05:46:11;;;;;;;10.30;7.63;;;5.10;99.90;;;;;;4979886;28;20469;-67
2023/03/29 05:48:39;;;;;;;10.07;8.10;;;5.20;99.90;;;;;;4984087;28;20469;-68
2023/03/29 05:51:08;;;;;;;9.20;7.70;;;5.20;99.90;;;;;;4993517;28;20884;-69
2023/03/29 05:53:37;;;;;;;9.83;8.80;;;5.20;99.90;;;;;;4989770;28;20524;-69
2023/03/29 05:56:07;;;;;;;12.50;8.50;;;5.20;99.90;;;;;;4991541;28;20469;-68
2023/03/29 05:58:37;;;;;;;10.17;8.60;;;5.20;99.90;;;;;;4993474;28;20465;-68
2023/03/29 06:01:10;;;;;;;9.13;8.20;;;5.20;99.90;;;;;;4990851;28;20499;-72
2023/03/29 06:03:38;;;;;;;9.83;8.93;;;5.30;99.90;;;;;;4995601;28;20500;-69
2023/03/29 06:06:08;;;;;;;11.97;8.83;;;5.30;99.90;;;;;;4979628;28;20473;-68
2023/03/29 06:08:37;;;;;;;10.97;9.10;;;5.30;99.90;;;;;;4982447;28;20477;-68
2023/03/29 06:11:07;;;;;;;10.00;9.00;;;5.30;99.90;;;;;;4990101;28;20501;-67
2023/03/29 06:13:37;;;;;;;11.00;8.80;;;5.40;99.90;;;;;;4976336;28;20484;-68
2023/03/29 06:16:06;;;;;;;12.43;9.03;;;5.40;99.90;;;;;;4988866;28;20596;-68
2023/03/29 06:18:35;;;;;;;10.70;9.60;;;5.40;99.90;;;;;;4992882;28;20846;-68
2023/03/29 06:21:03;;;;;;;11.60;9.60;;;5.40;99.90;;;;;;4990887;28;20493;-69
2023/03/29 06:23:32;;;;;;;11.10;10.10;;;5.40;99.90;;;;;;4988922;28;20481;-68
2023/03/29 06:26:01;;;;;;;9.53;8.63;;;5.40;99.90;;;;;;4990947;28;20546;-67
2023/03/29 06:28:29;;;;;;;10.83;9.30;;;5.40;99.90;;;;;;4990576;28;20479;-68
2023/03/29 06:31:00;;;;;;;10.47;9.03;;;5.50;99.90;;;;;;4993305;28;20497;-68
2023/03/29 06:33:31;;;;;;;10.40;9.40;;;5.50;99.90;;;;;;4988379;28;20727;-68
2023/03/29 06:35:59;;;;;;;11.20;10.10;;;5.50;99.90;;;;;;4991830;28;20504;-68
2023/03/29 06:38:27;;;;;;;11.60;9.60;;;5.50;99.90;;;;;;4992122;28;20480;-68
2023/03/29 06:41:02;;;;;;;11.13;9.50;;;5.50;99.90;;;;;;4990346;28;20507;-69
2023/03/29 06:43:31;;;;;;;10.60;9.60;;;5.60;99.90;;;;;;4987586;28;20524;-68
2023/03/29 06:46:00;;;;;;;12.30;10.87;;;5.60;99.90;;;;;;4986645;28;20472;-68
2023/03/29 06:48:29;;;;;;;10.33;9.27;;;5.60;99.90;;;;;;4986739;28;20476;-68
2023/03/29 06:50:57;;;;;;;12.97;10.30;;;5.60;99.90;;;;;;4993945;28;20544;-68
2023/03/29 06:53:26;;;;;;;14.50;9.60;;;5.60;99.90;;;;;;4981606;28;20591;-68
2023/03/29 06:55:55;;;;;;;11.00;9.90;;;5.70;99.90;;;;;;4987178;28;20989;-68
2023/03/29 06:58:24;;;;;;;10.30;9.30;;;5.70;99.90;;;;;;4985941;28;21042;-69
2023/03/29 07:01:00;;;;;;;13.20;8.97;;;5.70;99.90;;;;;;4980616;28;21601;-68
2023/03/29 07:03:29;;;;;;;11.27;9.47;;;5.80;99.90;;;;;;4992105;28;20503;-68
2023/03/29 07:06:02;;;;;;;12.23;9.47;;;5.80;99.90;;;;;;4987766;28;21409;-69
2023/03/29 07:08:30;;;;;;;9.70;8.70;;;5.80;99.90;;;;;;4991434;28;20970;-69
2023/03/29 07:11:00;;;;;;;12.23;8.67;;;5.80;99.90;;;;;;4985192;28;20477;-68
2023/03/29 07:13:31;;;;;;;11.90;9.37;;;5.90;99.90;;;;;;4986663;28;20513;-69
2023/03/29 07:15:59;;;;;;;10.40;9.10;;;5.90;99.90;;;;;;4989538;28;20988;-69
2023/03/29 07:18:27;;;;;;;9.17;8.20;;;5.90;99.90;;;;;;4992646;28;20479;-68
2023/03/29 07:20:56;;;;;;;12.97;8.60;;;6.00;99.90;;;;;;4987582;28;20499;-68
2023/03/29 07:23:24;;;;;;;9.37;8.57;;;6.00;99.90;;;;;;4988787;28;20489;-68
2023/03/29 07:25:52;;;;;;;9.47;8.37;;;6.10;99.90;;;;;;4989586;28;20496;-69
2023/03/29 07:28:20;;;;;;;9.67;8.40;;;6.10;99.90;;;;;;4976247;28;20620;-68
2023/03/29 07:30:50;;;;;;;9.87;7.70;;;6.20;99.90;;;;;;4990309;28;20515;-69
2023/03/29 07:33:18;;;;;;;8.93;7.93;;;6.20;99.90;;;;;;4973010;28;20489;-68
2023/03/29 07:35:47;;;;;;;8.17;7.37;;;6.30;99.90;;;;;;4988453;28;20982;-69
2023/03/29 07:38:15;;;;;;;9.77;7.40;;;6.30;99.90;;;;;;4991788;28;20509;-68
2023/03/29 07:40:43;;;;;;;9.57;8.00;;;6.40;99.90;;;;;;4948979;28;1085027;-68
2023/03/29 07:43:11;;;;;;;8.77;7.80;;;6.40;99.90;;;;;;4990397;28;20252;-71
2023/03/29 07:45:41;;;;;;;8.63;7.57;;;6.50;99.90;;;;;;4987548;28;20477;-69
2023/03/29 07:48:10;;;;;;;8.50;7.30;;;6.50;99.90;;;;;;4985239;28;20462;-69
2023/03/29 07:50:39;;;;;;;8.50;7.60;;;6.50;99.90;;;;;;4989617;28;20948;-68
2023/03/29 07:53:07;;;;;;;8.90;7.23;;;6.60;99.90;;;;;;4986111;28;20905;-68
2023/03/29 07:55:36;;;;;;;8.07;7.10;;;6.60;99.90;;;;;;4991766;28;20485;-69
2023/03/29 07:58:05;;;;;;;8.77;6.97;;;6.60;99.90;;;;;;4991569;28;20465;-68
2023/03/29 08:00:32;;;;;;;11.93;7.13;;;6.70;99.90;;;;;;4985860;28;20871;-68
2023/03/29 08:03:02;;;;;;;8.87;7.43;;;6.70;99.90;;;;;;4983567;28;20575;-66
2023/03/29 08:05:32;;;;;;;7.87;7.03;;;6.70;99.90;;;;;;4987774;28;20994;-68
2023/03/29 08:08:08;;;;;;;11.03;7.93;;;6.70;99.90;;;;;;4990499;28;20473;-67
2023/03/29 08:10:38;;;;;;;8.10;7.30;;;6.80;99.90;;;;;;4988775;28;20591;-67
2023/03/29 08:13:08;;;;;;;8.00;7.20;;;6.80;99.90;;;;;;4983927;28;20520;-67
2023/03/29 08:15:38;;;;;;;7.70;7.00;;;6.80;99.90;;;;;;4988552;28;20642;-68
2023/03/29 08:18:06;;;;;;;9.40;7.77;;;6.90;99.90;;;;;;4989841;28;20495;-67
2023/03/29 08:20:36;;;;;;;8.97;8.07;;;6.90;99.90;;;;;;4985491;28;20907;-66
2023/03/29 08:23:05;;;;;;;11.77;7.67;;;6.90;99.90;;;;;;4987857;28;20497;-67
2023/03/29 08:25:34;;;;;;;7.97;7.20;;;6.90;99.90;;;;;;4986576;28;20491;-66
2023/03/29 08:28:01;;;;;;;8.20;7.27;;;7.00;99.90;;;;;;4988698;28;20479;-67
2023/03/29 08:30:30;;;;;;;8.37;7.17;;;7.00;99.90;;;;;;4988379;28;20481;-68
2023/03/29 08:32:58;;;;;;;8.90;7.30;;;7.10;99.90;;;;;;4985488;28;20489;-68
2023/03/29 08:35:26;;;;;;;6.73;6.13;;;7.10;99.90;;;;;;4988986;28;20477;-73
2023/03/29 08:37:55;;;;;;;11.13;7.03;;;7.20;99.90;;;;;;4990699;28;20477;-68
2023/03/29 08:40:26;;;;;;;8.70;7.27;;;7.30;99.90;;;;;;4982346;28;20500;-68
2023/03/29 08:43:12;;;;;;;7.00;6.40;;;7.40;99.90;;;;;;4987750;28;20524;-68
2023/03/29 08:45:47;;;;;;;7.00;6.33;;;7.40;99.90;;;;;;4982215;28;20477;-68
2023/03/29 08:48:27;;;;;;;6.17;5.57;;;7.40;99.90;;;;;;4990643;28;20523;-68
2023/03/29 08:51:00;;;;;;;6.77;6.07;;;7.40;99.90;;;;;;4985949;28;20575;-67
2023/03/29 08:53:35;;;;;;;6.77;6.13;;;7.50;99.90;;;;;;4986737;28;21129;-67
2023/03/29 08:56:07;;;;;;;7.50;6.00;;;7.50;99.90;;;;;;4987405;28;20480;-66
2023/03/29 08:58:37;;;;;;;7.03;6.33;;;7.60;99.90;;;;;;4987163;28;20499;-66
2023/03/29 09:01:07;;;;;;;7.60;5.97;;;7.60;99.90;;;;;;4982010;28;20505;-66
2023/03/29 09:03:40;;;;;;;7.27;6.23;;;7.60;99.90;;;;;;4986795;28;20494;-68
2023/03/29 09:06:11;;;;;;;7.10;6.10;;;7.50;99.90;;;;;;4982087;28;20557;-68
2023/03/29 09:08:43;;;;;;;6.90;5.90;;;7.60;99.90;;;;;;4985042;28;20473;-68
2023/03/29 09:11:26;;;;;;;10.97;5.83;;;7.70;99.90;;;;;;4990118;28;21034;-67
2023/03/29 09:14:07;;;;;;;5.87;5.37;;;7.70;99.90;;;;;;4982445;28;20484;-68
2023/03/29 09:16:42;;;;;;;7.33;6.63;;;7.80;99.90;;;;;;4988784;28;20556;-69
2023/03/29 09:19:24;;;;;;;7.60;6.03;;;7.80;99.90;;;;;;4985091;28;20856;-68
2023/03/29 09:22:00;;;;;;;7.87;6.17;;;7.80;99.90;;;;;;4988787;28;20501;-71
2023/03/29 09:24:41;;;;;;;6.63;5.93;;;7.80;99.90;;;;;;4989428;28;21049;-68
2023/03/29 09:27:13;;;;;;;8.33;6.23;;;7.80;99.90;;;;;;4983663;28;21163;-68
2023/03/29 09:29:52;;;;;;;7.20;5.93;;;7.80;99.90;;;;;;4990520;28;20481;-68
2023/03/29 09:32:22;;;;;;;7.63;5.63;;;7.80;99.90;;;;;;4984818;28;20489;-67
2023/03/29 09:34:59;;;;;;;8.50;6.40;;;7.80;99.90;;;;;;4987335;28;21231;-68
2023/03/29 09:37:32;;;;;;;6.80;6.20;;;7.90;99.90;;;;;;4988710;28;20483;-68
2023/03/29 09:40:09;;;;;;;8.07;5.77;;;7.90;99.90;;;;;;4985455;28;20500;-67
2023/03/29 09:42:39;;;;;;;7.37;5.73;;;8.00;99.90;;;;;;4986846;28;20538;-68
2023/03/29 09:45:08;;;;;;;7.03;6.33;;;8.00;99.90;;;;;;4986078;28;20497;-68
2023/03/29 09:47:40;;;;;;;6.57;6.00;;;8.10;99.90;;;;;;4986380;28;20472;-67
2023/03/29 09:50:14;;;;;;;8.10;5.90;;;8.10;99.90;;;;;;4983439;28;21033;-68
2023/03/29 09:52:58;;;;;;;6.80;6.20;;;8.30;99.90;;;;;;4981959;28;20574;-67
2023/03/29 09:55:31;;;;;;;6.63;5.93;;;8.30;99.90;;;;;;4984745;28;21016;-71
2023/03/29 09:58:01;;;;;;;8.03;6.00;;;8.40;99.90;;;;;;4987271;28;20501;-68
2023/03/29 10:00:29;;;;;;;6.87;6.20;;;8.40;99.90;;;;;;4984796;28;20913;-67
2023/03/29 10:02:58;;;;;;;7.10;6.40;;;8.40;99.90;;;;;;4987115;28;20497;-68
2023/03/29 10:05:31;;;;;;;7.13;6.27;;;8.40;99.90;;;;;;4986381;28;20878;-67
2023/03/29 10:08:01;;;;;;;8.60;6.40;;;8.50;99.90;;;;;;4978361;28;20563;-67
2023/03/29 10:10:33;;;;;;;6.60;5.70;;;8.50;99.90;;;;;;4986168;28;20489;-67
2023/03/29 10:13:05;;;;;;;6.70;6.10;;;8.50;99.90;;;;;;4983809;28;20515;-67
2023/03/29 10:15:33;;;;;;;6.97;6.30;;;8.50;99.90;;;;;;4983514;28;20474;-68
2023/03/29 10:18:05;;;;;;;7.13;5.83;;;8.50;99.90;;;;;;4989040;28;20488;-67
2023/03/29 10:20:35;;;;;;;8.43;6.40;;;8.50;99.90;;;;;;4986354;28;20495;-67
2023/03/29 10:23:06;;;;;;;6.93;6.10;;;8.50;99.90;;;;;;4989062;28;20536;-67
2023/03/29 10:25:39;;;;;;;11.17;6.73;;;8.60;99.90;;;;;;4989951;28;20492;-68
2023/03/29 10:28:16;;;;;;;8.13;6.70;;;8.70;99.90;;;;;;4982516;28;20583;-66
2023/03/29 10:30:47;;;;;;;8.80;6.73;;;8.70;99.90;;;;;;4984628;28;20495;-72
2023/03/29 10:33:18;;;;;;;6.43;5.80;;;8.70;99.90;;;;;;4982705;28;20491;-68
2023/03/29 10:35:48;;;;;;;7.83;7.03;;;8.70;99.90;;;;;;4987017;28;20473;-68
2023/03/29 10:38:19;;;;;;;7.93;6.87;;;8.80;99.90;;;;;;4990948;28;20974;-68
2023/03/29 10:40:50;;;;;;;7.93;7.17;;;8.80;99.90;;;;;;4985815;28;20496;-68
2023/03/29 10:43:23;;;;;;;6.83;6.17;;;8.90;99.90;;;;;;4989389;28;21068;-68
2023/03/29 10:45:53;;;;;;;7.23;6.53;;;9.00;99.90;;;;;;4987444;28;20473;-68
2023/03/29 10:48:25;;;;;;;7.20;6.23;;;9.10;99.90;;;;;;4985205;28;20548;-68
2023/03/29 10:50:53;;;;;;;8.03;7.23;;;9.20;99.90;;;;;;4990743;28;21842;-68
2023/03/29 10:53:25;;;;;;;7.90;7.10;;;9.20;99.90;;;;;;4988954;28;21056;-67
2023/03/29 10:56:06;;;;;;;7.83;7.03;;;9.30;99.90;;;;;;4986084;28;20934;-68
2023/03/29 10:58:46;;;;;;;7.10;6.40;;;9.20;99.90;;;;;;4989282;28;20473;-67
2023/03/29 11:01:21;;;;;;;8.53;6.67;;;9.20;99.90;;;;;;4983127;28;21169;-68
2023/03/29 11:04:10;;;;;;;7.83;7.10;;;9.20;99.90;;;;;;4986638;28;20575;-68
2023/03/29 11:06:43;;;;;;;7.43;6.83;;;9.30;99.90;;;;;;4989243;28;20471;-69
2023/03/29 11:09:22;;;;;;;8.00;7.30;;;9.30;99.90;;;;;;4984577;28;20474;-68
2023/03/29 11:12:03;;;;;;;8.97;8.17;;;9.30;99.90;;;;;;4983959;28;20550;-69
2023/03/29 11:14:53;;;;;;;9.03;7.50;;;9.30;99.90;;;;;;4984892;28;20718;-68
2023/03/29 11:17:34;;;;;;;12.07;7.60;;;9.30;99.90;;;;;;4986663;28;20468;-70
2023/03/29 11:20:19;;;;;;;8.83;7.93;;;9.30;99.90;;;;;;4988243;28;20918;-69
2023/03/29 11:22:52;;;;;;;8.43;7.70;;;9.30;99.90;;;;;;4986383;28;20485;-69
2023/03/29 11:25:30;;;;;;;8.50;7.60;;;9.30;99.90;;;;;;4991444;28;20493;-68
2023/03/29 11:28:07;;;;;;;8.90;7.50;;;9.20;99.90;;;;;;4986510;28;20989;-68
2023/03/29 11:30:40;;;;;;;9.60;7.70;;;9.20;99.90;;;;;;4990244;28;20497;-68
2023/03/29 11:33:19;;;;;;;8.20;7.37;;;9.20;99.90;;;;;;4979998;28;20492;-67
2023/03/29 11:35:55;;;;;;;10.23;8.13;;;9.20;99.90;;;;;;4991469;28;20856;-69
2023/03/29 11:38:29;;;;;;;8.70;8.00;;;9.20;99.90;;;;;;4982968;28;20476;-68
2023/03/29 11:41:02;;;;;;;9.57;8.43;;;9.20;99.90;;;;;;4989112;28;20527;-69
2023/03/29 11:43:35;;;;;;;10.30;8.23;;;9.20;99.90;;;;;;4987453;28;20500;-68
2023/03/29 11:46:11;;;;;;;8.93;7.63;;;9.20;99.90;;;;;;4980875;28;20858;-68
2023/03/29 11:48:46;;;;;;;9.60;8.00;;;9.30;99.90;;;;;;4978071;28;20476;-68
2023/03/29 11:51:21;;;;;;;9.00;7.93;;;9.30;99.90;;;;;;4979514;28;20579;-68
2023/03/29 11:53:56;;;;;;;9.60;8.60;;;9.30;99.90;;;;;;4977055;28;20531;-67
2023/03/29 11:56:29;;;;;;;12.13;8.30;;;9.30;99.90;;;;;;4985324;28;20492;-69
2023/03/29 11:59:04;;;;;;;10.43;8.33;;;9.20;99.90;;;;;;4987765;28;20473;-68
2023/03/29 12:01:36;;;;;;;9.20;8.30;;;9.20;99.90;;;;;;4982334;28;20524;-68
2023/03/29 12:04:10;;;;;;;9.80;8.73;;;9.20;99.90;;;;;;4982447;28;20551;-69
2023/03/29 12:06:46;;;;;;;8.77;7.97;;;9.20;99.90;;;;;;4982570;28;20505;-68
2023/03/29 12:09:25;;;;;;;9.70;8.70;;;9.30;99.90;;;;;;4984602;28;20473;-68
2023/03/29 12:12:01;;;;;;;9.77;8.77;;;9.30;99.90;;;;;;4987175;28;20500;-69
2023/03/29 12:14:45;;;;;;;10.13;9.03;;;9.30;99.90;;;;;;4983035;28;21125;-67
2023/03/29 12:17:18;;;;;;;9.93;8.93;;;9.30;99.90;;;;;;4986968;28;20967;-70
2023/03/29 12:19:53;;;;;;;9.30;8.40;;;9.40;99.90;;;;;;4986103;28;21041;-68
2023/03/29 12:22:22;;;;;;;10.00;9.00;;;9.40;99.90;;;;;;4987162;28;20496;-69
2023/03/29 12:24:53;;;;;;;10.10;9.10;;;9.50;99.90;;;;;;4981267;28;20489;-70
2023/03/29 12:27:27;;;;;;;10.53;9.43;;;9.50;99.90;;;;;;4978068;28;20481;-69
2023/03/29 12:30:22;;;;;;;10.37;9.27;;;9.50;99.90;;;;;;4988702;28;20877;-69
2023/03/29 12:33:22;;;;;;;10.57;9.67;;;9.60;99.90;;;;;;4975680;28;21097;-68
2023/03/29 12:36:05;;;;;;;10.30;9.30;;;9.70;99.90;;;;;;4980558;28;20477;-67
2023/03/29 12:38:33;;;;;;;10.80;9.83;;;9.70;99.90;;;;;;4987062;28;20492;-69
2023/03/29 12:41:10;;;;;;;16.50;11.07;;;9.80;99.90;;;;;;4984262;28;22474;-68
2023/03/29 12:43:40;;;;;;;11.50;10.40;;;9.80;99.90;;;;;;4983236;28;20488;-70
2023/03/29 12:46:14;;;;;;;10.67;9.67;;;9.80;99.90;;;;;;4988197;28;20496;-70
2023/03/29 12:48:44;;;;;;;10.50;9.50;;;9.70;99.90;;;;;;4987906;28;20476;-70
2023/03/29 12:51:15;;;;;;;11.63;10.43;;;9.70;99.90;;;;;;4989290;28;20496;-70
2023/03/29 12:53:45;;;;;;;10.83;9.83;;;9.70;99.90;;;;;;4985347;28;20543;-67
2023/03/29 12:56:16;;;;;;;11.13;10.13;;;9.80;99.90;;;;;;4989412;28;20460;-66
2023/03/29 12:58:53;;;;;;;10.50;9.57;;;9.70;99.90;;;;;;4985125;28;20469;-66
2023/03/29 13:01:26;;;;;;;11.37;10.30;;;9.80;99.90;;;;;;4980369;28;20492;-67
2023/03/29 13:04:17;;;;;;;11.03;10.10;;;9.80;99.90;;;;;;4988100;28;20906;-67
2023/03/29 13:07:02;;;;;;;11.37;10.37;;;9.80;99.90;;;;;;4982860;28;20495;-69
2023/03/29 13:09:34;;;;;;;11.93;10.50;;;9.80;99.90;;;;;;4987297;28;20465;-68
2023/03/29 13:12:13;;;;;;;10.70;9.70;;;9.80;99.90;;;;;;4986997;28;21066;-69
2023/03/29 13:14:43;;;;;;;12.87;10.27;;;9.80;99.90;;;;;;4984530;28;20479;-68
2023/03/29 13:17:24;;;;;;;11.00;10.10;;;9.90;99.90;;;;;;4982355;28;20702;-67